sensor_id;sensor_type;location;lat;lon;timestamp;P1;durP1;ratioP1;P2;durP2;ratioP2
1693;SDS011;844;47.058;15.472;2022-08-21T00:00:36;1.03;;;0.93;;
1693;SDS011;844;47.058;15.472;2022-08-21T00:03:10;1.67;;;1.20;;
1693;SDS011;844;47.058;15.472;2022-08-21T00:05:41;1.90;;;1.37;;
1693;SDS011;844;47.058;15.472;2022-08-21T00:08:13;1.20;;;1.10;;
1693;SDS011;844;47.058;15.472;2022-08-21T00:10:42;1.30;;;1.20;;
1693;SDS011;844;47.058;15.472;2022-08-21T00:13:13;1.37;;;1.27;;
1693;SDS011;844;47.058;15.472;2022-08-21T00:15:46;2.03;;;1.47;;
1693;SDS011;844;47.058;15.472;2022-08-21T00:18:17;1.30;;;1.13;;
1693;SDS011;844;47.058;15.472;2022-08-21T00:20:47;1.43;;;1.33;;
1693;SDS011;844;47.058;15.472;2022-08-21T00:23:16;1.30;;;1.20;;
1693;SDS011;844;47.058;15.472;2022-08-21T00:25:45;1.37;;;1.27;;
1693;SDS011;844;47.058;15.472;2022-08-21T00:28:16;1.60;;;1.43;;
1693;SDS011;844;47.058;15.472;2022-08-21T00:30:45;1.40;;;1.30;;
1693;SDS011;844;47.058;15.472;2022-08-21T00:33:15;1.60;;;1.50;;
1693;SDS011;844;47.058;15.472;2022-08-21T00:35:44;1.43;;;1.33;;
1693;SDS011;844;47.058;15.472;2022-08-21T00:38:13;1.10;;;1.00;;
1693;SDS011;844;47.058;15.472;2022-08-21T00:40:44;2.80;;;1.10;;
1693;SDS011;844;47.058;15.472;2022-08-21T00:43:18;1.40;;;1.30;;
1693;SDS011;844;47.058;15.472;2022-08-21T00:45:50;1.50;;;1.40;;
1693;SDS011;844;47.058;15.472;2022-08-21T00:48:20;1.57;;;1.43;;
1693;SDS011;844;47.058;15.472;2022-08-21T00:50:50;1.33;;;1.17;;
1693;SDS011;844;47.058;15.472;2022-08-21T00:53:25;1.30;;;1.20;;
1693;SDS011;844;47.058;15.472;2022-08-21T00:55:55;1.30;;;1.10;;
1693;SDS011;844;47.058;15.472;2022-08-21T00:58:30;1.40;;;1.03;;
1693;SDS011;844;47.058;15.472;2022-08-21T01:01:04;1.60;;;1.50;;
1693;SDS011;844;47.058;15.472;2022-08-21T01:03:35;3.90;;;1.60;;
1693;SDS011;844;47.058;15.472;2022-08-21T01:06:11;1.13;;;1.03;;
1693;SDS011;844;47.058;15.472;2022-08-21T01:08:41;1.73;;;1.63;;
1693;SDS011;844;47.058;15.472;2022-08-21T01:11:13;2.03;;;1.30;;
1693;SDS011;844;47.058;15.472;2022-08-21T01:13:45;1.93;;;1.10;;
1693;SDS011;844;47.058;15.472;2022-08-21T01:16:17;1.27;;;1.17;;
1693;SDS011;844;47.058;15.472;2022-08-21T01:18:49;1.50;;;1.40;;
1693;SDS011;844;47.058;15.472;2022-08-21T01:21:21;1.47;;;1.20;;
1693;SDS011;844;47.058;15.472;2022-08-21T01:23:54;1.63;;;1.53;;
1693;SDS011;844;47.058;15.472;2022-08-21T01:26:26;1.80;;;1.43;;
1693;SDS011;844;47.058;15.472;2022-08-21T01:29:04;1.30;;;1.20;;
1693;SDS011;844;47.058;15.472;2022-08-21T01:31:38;1.40;;;1.30;;
1693;SDS011;844;47.058;15.472;2022-08-21T01:34:08;1.30;;;1.20;;
1693;SDS011;844;47.058;15.472;2022-08-21T01:36:38;1.60;;;1.50;;
1693;SDS011;844;47.058;15.472;2022-08-21T01:39:08;2.93;;;1.17;;
1693;SDS011;844;47.058;15.472;2022-08-21T01:41:38;1.70;;;1.60;;
1693;SDS011;844;47.058;15.472;2022-08-21T01:44:07;1.97;;;1.47;;
1693;SDS011;844;47.058;15.472;2022-08-21T01:46:36;2.37;;;1.77;;
1693;SDS011;844;47.058;15.472;2022-08-21T01:49:06;1.87;;;1.53;;
1693;SDS011;844;47.058;15.472;2022-08-21T01:51:35;1.50;;;1.40;;
1693;SDS011;844;47.058;15.472;2022-08-21T01:54:06;1.87;;;1.70;;
1693;SDS011;844;47.058;15.472;2022-08-21T01:56:36;1.53;;;1.40;;
1693;SDS011;844;47.058;15.472;2022-08-21T01:59:09;1.67;;;1.57;;
1693;SDS011;844;47.058;15.472;2022-08-21T02:01:38;1.70;;;1.60;;
1693;SDS011;844;47.058;15.472;2022-08-21T02:04:08;1.97;;;1.80;;
1693;SDS011;844;47.058;15.472;2022-08-21T02:06:39;1.60;;;1.50;;
1693;SDS011;844;47.058;15.472;2022-08-21T02:09:10;1.70;;;1.60;;
1693;SDS011;844;47.058;15.472;2022-08-21T02:11:42;1.50;;;1.40;;
1693;SDS011;844;47.058;15.472;2022-08-21T02:14:12;1.80;;;1.70;;
1693;SDS011;844;47.058;15.472;2022-08-21T02:16:58;1.50;;;1.40;;
1693;SDS011;844;47.058;15.472;2022-08-21T02:19:35;1.43;;;1.33;;
1693;SDS011;844;47.058;15.472;2022-08-21T02:22:07;1.77;;;1.67;;
1693;SDS011;844;47.058;15.472;2022-08-21T02:24:38;2.00;;;1.80;;
1693;SDS011;844;47.058;15.472;2022-08-21T02:27:21;1.80;;;1.70;;
1693;SDS011;844;47.058;15.472;2022-08-21T02:29:53;2.47;;;2.10;;
1693;SDS011;844;47.058;15.472;2022-08-21T02:32:23;1.93;;;1.73;;
1693;SDS011;844;47.058;15.472;2022-08-21T02:34:53;1.40;;;1.30;;
1693;SDS011;844;47.058;15.472;2022-08-21T02:37:23;1.73;;;1.63;;
1693;SDS011;844;47.058;15.472;2022-08-21T02:39:54;1.53;;;1.30;;
1693;SDS011;844;47.058;15.472;2022-08-21T02:42:23;1.70;;;1.60;;
1693;SDS011;844;47.058;15.472;2022-08-21T02:44:52;2.17;;;1.97;;
1693;SDS011;844;47.058;15.472;2022-08-21T02:47:21;1.40;;;1.30;;
1693;SDS011;844;47.058;15.472;2022-08-21T02:49:51;2.10;;;1.90;;
1693;SDS011;844;47.058;15.472;2022-08-21T02:52:21;1.80;;;1.70;;
1693;SDS011;844;47.058;15.472;2022-08-21T02:54:50;2.30;;;2.10;;
1693;SDS011;844;47.058;15.472;2022-08-21T02:57:20;3.03;;;2.07;;
1693;SDS011;844;47.058;15.472;2022-08-21T02:59:51;1.70;;;1.60;;
1693;SDS011;844;47.058;15.472;2022-08-21T03:02:20;2.00;;;1.90;;
1693;SDS011;844;47.058;15.472;2022-08-21T03:04:52;2.00;;;1.60;;
1693;SDS011;844;47.058;15.472;2022-08-21T03:07:21;2.27;;;2.10;;
1693;SDS011;844;47.058;15.472;2022-08-21T03:09:51;1.60;;;1.50;;
1693;SDS011;844;47.058;15.472;2022-08-21T03:12:23;2.60;;;2.40;;
1693;SDS011;844;47.058;15.472;2022-08-21T03:14:55;1.83;;;1.57;;
1693;SDS011;844;47.058;15.472;2022-08-21T03:17:25;2.50;;;2.10;;
1693;SDS011;844;47.058;15.472;2022-08-21T03:19:56;1.70;;;1.60;;
1693;SDS011;844;47.058;15.472;2022-08-21T03:22:25;1.97;;;1.87;;
1693;SDS011;844;47.058;15.472;2022-08-21T03:25:19;1.93;;;1.83;;
1693;SDS011;844;47.058;15.472;2022-08-21T03:28:08;1.70;;;1.60;;
1693;SDS011;844;47.058;15.472;2022-08-21T03:30:42;1.80;;;1.70;;
1693;SDS011;844;47.058;15.472;2022-08-21T03:33:12;3.20;;;1.90;;
1693;SDS011;844;47.058;15.472;2022-08-21T03:35:47;2.00;;;1.80;;
1693;SDS011;844;47.058;15.472;2022-08-21T03:38:23;2.00;;;1.90;;
1693;SDS011;844;47.058;15.472;2022-08-21T03:40:52;1.87;;;1.73;;
1693;SDS011;844;47.058;15.472;2022-08-21T03:43:23;1.67;;;1.57;;
1693;SDS011;844;47.058;15.472;2022-08-21T03:45:57;2.03;;;1.93;;
1693;SDS011;844;47.058;15.472;2022-08-21T03:48:26;2.27;;;1.73;;
1693;SDS011;844;47.058;15.472;2022-08-21T03:50:55;1.63;;;1.43;;
1693;SDS011;844;47.058;15.472;2022-08-21T03:53:25;2.00;;;1.73;;
1693;SDS011;844;47.058;15.472;2022-08-21T03:55:54;2.03;;;1.83;;
1693;SDS011;844;47.058;15.472;2022-08-21T03:58:26;2.10;;;2.00;;
1693;SDS011;844;47.058;15.472;2022-08-21T04:00:57;2.20;;;2.00;;
1693;SDS011;844;47.058;15.472;2022-08-21T04:03:28;2.37;;;1.70;;
1693;SDS011;844;47.058;15.472;2022-08-21T04:05:58;2.07;;;1.80;;
1693;SDS011;844;47.058;15.472;2022-08-21T04:08:27;1.67;;;1.57;;
1693;SDS011;844;47.058;15.472;2022-08-21T04:10:57;1.80;;;1.70;;
1693;SDS011;844;47.058;15.472;2022-08-21T04:13:28;2.00;;;1.90;;
1693;SDS011;844;47.058;15.472;2022-08-21T04:15:58;2.70;;;2.50;;
1693;SDS011;844;47.058;15.472;2022-08-21T04:18:27;2.53;;;2.33;;
1693;SDS011;844;47.058;15.472;2022-08-21T04:20:58;2.30;;;2.10;;
1693;SDS011;844;47.058;15.472;2022-08-21T04:23:30;2.23;;;2.03;;
1693;SDS011;844;47.058;15.472;2022-08-21T04:26:00;2.37;;;2.17;;
1693;SDS011;844;47.058;15.472;2022-08-21T04:28:34;2.37;;;2.17;;
1693;SDS011;844;47.058;15.472;2022-08-21T04:31:03;1.83;;;1.73;;
1693;SDS011;844;47.058;15.472;2022-08-21T04:33:33;2.20;;;2.10;;
1693;SDS011;844;47.058;15.472;2022-08-21T04:36:03;2.20;;;2.00;;
1693;SDS011;844;47.058;15.472;2022-08-21T04:38:33;2.50;;;2.30;;
1693;SDS011;844;47.058;15.472;2022-08-21T04:41:08;2.13;;;1.93;;
1693;SDS011;844;47.058;15.472;2022-08-21T04:43:40;3.33;;;2.10;;
1693;SDS011;844;47.058;15.472;2022-08-21T04:46:09;3.73;;;1.80;;
1693;SDS011;844;47.058;15.472;2022-08-21T04:48:39;2.70;;;2.50;;
1693;SDS011;844;47.058;15.472;2022-08-21T04:51:09;2.23;;;2.03;;
1693;SDS011;844;47.058;15.472;2022-08-21T04:53:43;3.83;;;2.53;;
1693;SDS011;844;47.058;15.472;2022-08-21T04:56:20;2.77;;;2.50;;
1693;SDS011;844;47.058;15.472;2022-08-21T04:58:55;2.57;;;2.37;;
1693;SDS011;844;47.058;15.472;2022-08-21T05:01:30;2.20;;;2.00;;
1693;SDS011;844;47.058;15.472;2022-08-21T05:04:03;1.97;;;1.87;;
1693;SDS011;844;47.058;15.472;2022-08-21T05:06:34;2.10;;;2.00;;
1693;SDS011;844;47.058;15.472;2022-08-21T05:09:07;1.90;;;1.80;;
1693;SDS011;844;47.058;15.472;2022-08-21T05:11:37;2.17;;;2.00;;
1693;SDS011;844;47.058;15.472;2022-08-21T05:14:09;2.57;;;2.37;;
1693;SDS011;844;47.058;15.472;2022-08-21T05:16:38;2.30;;;2.07;;
1693;SDS011;844;47.058;15.472;2022-08-21T05:19:08;2.20;;;2.00;;
1693;SDS011;844;47.058;15.472;2022-08-21T05:21:39;2.50;;;2.30;;
1693;SDS011;844;47.058;15.472;2022-08-21T05:24:13;2.00;;;1.90;;
1693;SDS011;844;47.058;15.472;2022-08-21T05:26:46;2.03;;;1.93;;
1693;SDS011;844;47.058;15.472;2022-08-21T05:29:17;2.03;;;1.83;;
1693;SDS011;844;47.058;15.472;2022-08-21T05:31:48;2.10;;;1.90;;
1693;SDS011;844;47.058;15.472;2022-08-21T05:34:18;3.40;;;2.40;;
1693;SDS011;844;47.058;15.472;2022-08-21T05:36:50;2.33;;;2.13;;
1693;SDS011;844;47.058;15.472;2022-08-21T05:39:19;2.53;;;2.33;;
1693;SDS011;844;47.058;15.472;2022-08-21T05:41:47;2.00;;;1.77;;
1693;SDS011;844;47.058;15.472;2022-08-21T05:44:20;2.30;;;2.03;;
1693;SDS011;844;47.058;15.472;2022-08-21T05:46:49;1.87;;;1.77;;
1693;SDS011;844;47.058;15.472;2022-08-21T05:49:18;1.83;;;1.73;;
1693;SDS011;844;47.058;15.472;2022-08-21T05:51:47;1.90;;;1.80;;
1693;SDS011;844;47.058;15.472;2022-08-21T05:54:16;2.00;;;1.90;;
1693;SDS011;844;47.058;15.472;2022-08-21T05:56:45;3.13;;;1.97;;
1693;SDS011;844;47.058;15.472;2022-08-21T05:59:14;2.57;;;2.37;;
1693;SDS011;844;47.058;15.472;2022-08-21T06:01:45;2.60;;;2.40;;
1693;SDS011;844;47.058;15.472;2022-08-21T06:04:15;3.07;;;2.77;;
1693;SDS011;844;47.058;15.472;2022-08-21T06:06:44;2.67;;;2.47;;
1693;SDS011;844;47.058;15.472;2022-08-21T06:09:14;2.73;;;2.53;;
1693;SDS011;844;47.058;15.472;2022-08-21T06:11:43;2.20;;;2.00;;
1693;SDS011;844;47.058;15.472;2022-08-21T06:14:13;2.07;;;1.97;;
1693;SDS011;844;47.058;15.472;2022-08-21T06:16:43;1.87;;;1.77;;
1693;SDS011;844;47.058;15.472;2022-08-21T06:19:13;2.30;;;2.00;;
1693;SDS011;844;47.058;15.472;2022-08-21T06:21:43;2.33;;;2.13;;
1693;SDS011;844;47.058;15.472;2022-08-21T06:24:12;2.00;;;1.90;;
1693;SDS011;844;47.058;15.472;2022-08-21T06:26:41;2.37;;;2.27;;
1693;SDS011;844;47.058;15.472;2022-08-21T06:29:12;2.60;;;2.40;;
1693;SDS011;844;47.058;15.472;2022-08-21T06:31:43;2.37;;;1.93;;
1693;SDS011;844;47.058;15.472;2022-08-21T06:34:15;2.60;;;2.40;;
1693;SDS011;844;47.058;15.472;2022-08-21T06:36:44;2.60;;;2.17;;
1693;SDS011;844;47.058;15.472;2022-08-21T06:39:13;2.57;;;2.37;;
1693;SDS011;844;47.058;15.472;2022-08-21T06:41:56;1.93;;;1.83;;
1693;SDS011;844;47.058;15.472;2022-08-21T06:44:26;2.20;;;2.00;;
1693;SDS011;844;47.058;15.472;2022-08-21T06:46:55;2.47;;;2.27;;
1693;SDS011;844;47.058;15.472;2022-08-21T06:49:26;2.23;;;1.60;;
1693;SDS011;844;47.058;15.472;2022-08-21T06:51:55;3.53;;;2.10;;
1693;SDS011;844;47.058;15.472;2022-08-21T06:54:24;1.73;;;1.63;;
1693;SDS011;844;47.058;15.472;2022-08-21T06:56:53;2.00;;;1.73;;
1693;SDS011;844;47.058;15.472;2022-08-21T06:59:23;2.00;;;1.80;;
1693;SDS011;844;47.058;15.472;2022-08-21T07:01:52;2.27;;;2.07;;
1693;SDS011;844;47.058;15.472;2022-08-21T07:04:21;1.90;;;1.73;;
1693;SDS011;844;47.058;15.472;2022-08-21T07:06:52;1.60;;;1.50;;
1693;SDS011;844;47.058;15.472;2022-08-21T07:09:21;1.70;;;1.60;;
1693;SDS011;844;47.058;15.472;2022-08-21T07:11:51;2.00;;;1.90;;
1693;SDS011;844;47.058;15.472;2022-08-21T07:14:23;1.90;;;1.80;;
1693;SDS011;844;47.058;15.472;2022-08-21T07:16:53;2.23;;;2.03;;
1693;SDS011;844;47.058;15.472;2022-08-21T07:19:22;2.40;;;1.67;;
1693;SDS011;844;47.058;15.472;2022-08-21T07:21:53;3.63;;;1.77;;
1693;SDS011;844;47.058;15.472;2022-08-21T07:24:28;2.17;;;2.03;;
1693;SDS011;844;47.058;15.472;2022-08-21T07:26:58;2.83;;;1.73;;
1693;SDS011;844;47.058;15.472;2022-08-21T07:29:27;1.60;;;1.50;;
1693;SDS011;844;47.058;15.472;2022-08-21T07:31:57;1.33;;;1.23;;
1693;SDS011;844;47.058;15.472;2022-08-21T07:34:26;1.70;;;1.60;;
1693;SDS011;844;47.058;15.472;2022-08-21T07:36:57;8.03;;;2.20;;
1693;SDS011;844;47.058;15.472;2022-08-21T07:39:36;2.00;;;1.90;;
1693;SDS011;844;47.058;15.472;2022-08-21T07:42:05;2.30;;;2.07;;
1693;SDS011;844;47.058;15.472;2022-08-21T07:44:35;1.67;;;1.57;;
1693;SDS011;844;47.058;15.472;2022-08-21T07:47:04;1.67;;;1.57;;
1693;SDS011;844;47.058;15.472;2022-08-21T07:49:33;2.00;;;1.90;;
1693;SDS011;844;47.058;15.472;2022-08-21T07:52:04;1.93;;;1.73;;
1693;SDS011;844;47.058;15.472;2022-08-21T07:54:33;1.93;;;1.73;;
1693;SDS011;844;47.058;15.472;2022-08-21T07:57:03;1.70;;;1.60;;
1693;SDS011;844;47.058;15.472;2022-08-21T07:59:33;1.67;;;1.57;;
1693;SDS011;844;47.058;15.472;2022-08-21T08:02:02;1.43;;;1.33;;
1693;SDS011;844;47.058;15.472;2022-08-21T08:04:31;1.50;;;1.40;;
1693;SDS011;844;47.058;15.472;2022-08-21T08:07:01;1.83;;;1.70;;
1693;SDS011;844;47.058;15.472;2022-08-21T08:09:32;1.60;;;1.50;;
1693;SDS011;844;47.058;15.472;2022-08-21T08:12:03;1.50;;;1.40;;
1693;SDS011;844;47.058;15.472;2022-08-21T08:14:32;1.40;;;1.30;;
1693;SDS011;844;47.058;15.472;2022-08-21T08:17:02;2.10;;;1.60;;
1693;SDS011;844;47.058;15.472;2022-08-21T08:19:31;1.40;;;1.30;;
1693;SDS011;844;47.058;15.472;2022-08-21T08:22:00;5.27;;;1.67;;
1693;SDS011;844;47.058;15.472;2022-08-21T08:24:31;1.60;;;1.40;;
1693;SDS011;844;47.058;15.472;2022-08-21T08:27:00;1.00;;;0.90;;
1693;SDS011;844;47.058;15.472;2022-08-21T08:29:31;1.60;;;1.50;;
1693;SDS011;844;47.058;15.472;2022-08-21T08:32:01;1.63;;;1.53;;
1693;SDS011;844;47.058;15.472;2022-08-21T08:34:30;1.30;;;1.20;;
1693;SDS011;844;47.058;15.472;2022-08-21T08:36:59;1.63;;;1.53;;
1693;SDS011;844;47.058;15.472;2022-08-21T08:39:34;1.30;;;1.20;;
1693;SDS011;844;47.058;15.472;2022-08-21T08:42:05;1.37;;;1.17;;
1693;SDS011;844;47.058;15.472;2022-08-21T08:44:59;1.33;;;1.23;;
1693;SDS011;844;47.058;15.472;2022-08-21T08:47:34;1.87;;;1.30;;
1693;SDS011;844;47.058;15.472;2022-08-21T08:50:07;1.83;;;1.53;;
1693;SDS011;844;47.058;15.472;2022-08-21T08:52:41;1.10;;;1.00;;
1693;SDS011;844;47.058;15.472;2022-08-21T08:55:19;1.77;;;1.40;;
1693;SDS011;844;47.058;15.472;2022-08-21T08:57:54;1.37;;;1.27;;
1693;SDS011;844;47.058;15.472;2022-08-21T09:00:24;1.30;;;1.20;;
1693;SDS011;844;47.058;15.472;2022-08-21T09:02:54;1.67;;;1.50;;
1693;SDS011;844;47.058;15.472;2022-08-21T09:05:27;1.77;;;1.53;;
1693;SDS011;844;47.058;15.472;2022-08-21T09:08:06;1.50;;;1.30;;
1693;SDS011;844;47.058;15.472;2022-08-21T09:11:00;2.73;;;1.60;;
1693;SDS011;844;47.058;15.472;2022-08-21T09:13:36;1.17;;;1.07;;
1693;SDS011;844;47.058;15.472;2022-08-21T09:16:15;1.20;;;1.10;;
1693;SDS011;844;47.058;15.472;2022-08-21T09:18:54;1.00;;;0.83;;
1693;SDS011;844;47.058;15.472;2022-08-21T09:21:36;1.50;;;1.40;;
1693;SDS011;844;47.058;15.472;2022-08-21T09:24:22;1.23;;;1.07;;
1693;SDS011;844;47.058;15.472;2022-08-21T09:27:03;1.13;;;1.00;;
1693;SDS011;844;47.058;15.472;2022-08-21T09:29:38;1.13;;;1.00;;
1693;SDS011;844;47.058;15.472;2022-08-21T09:32:10;1.40;;;1.30;;
1693;SDS011;844;47.058;15.472;2022-08-21T09:34:54;1.13;;;1.03;;
1693;SDS011;844;47.058;15.472;2022-08-21T09:37:27;1.37;;;1.27;;
1693;SDS011;844;47.058;15.472;2022-08-21T09:39:57;1.83;;;1.30;;
1693;SDS011;844;47.058;15.472;2022-08-21T09:42:29;1.20;;;1.10;;
1693;SDS011;844;47.058;15.472;2022-08-21T09:45:09;1.20;;;1.00;;
1693;SDS011;844;47.058;15.472;2022-08-21T09:47:42;1.47;;;1.37;;
1693;SDS011;844;47.058;15.472;2022-08-21T09:50:13;1.20;;;1.10;;
1693;SDS011;844;47.058;15.472;2022-08-21T09:52:48;2.17;;;2.00;;
1693;SDS011;844;47.058;15.472;2022-08-21T09:55:23;1.07;;;0.97;;
1693;SDS011;844;47.058;15.472;2022-08-21T09:58:19;1.40;;;1.30;;
1693;SDS011;844;47.058;15.472;2022-08-21T10:00:56;1.83;;;1.17;;
1693;SDS011;844;47.058;15.472;2022-08-21T10:03:28;1.30;;;1.20;;
1693;SDS011;844;47.058;15.472;2022-08-21T10:05:58;1.40;;;1.30;;
1693;SDS011;844;47.058;15.472;2022-08-21T10:08:36;1.60;;;1.50;;
1693;SDS011;844;47.058;15.472;2022-08-21T10:11:12;1.20;;;1.10;;
1693;SDS011;844;47.058;15.472;2022-08-21T10:13:50;1.60;;;1.27;;
1693;SDS011;844;47.058;15.472;2022-08-21T10:16:31;1.53;;;1.43;;
1693;SDS011;844;47.058;15.472;2022-08-21T10:19:14;1.40;;;1.30;;
1693;SDS011;844;47.058;15.472;2022-08-21T10:21:55;2.20;;;1.60;;
1693;SDS011;844;47.058;15.472;2022-08-21T10:24:36;2.43;;;1.70;;
1693;SDS011;844;47.058;15.472;2022-08-21T10:27:14;1.67;;;1.57;;
1693;SDS011;844;47.058;15.472;2022-08-21T10:29:54;1.53;;;1.40;;
1693;SDS011;844;47.058;15.472;2022-08-21T10:32:35;1.60;;;1.50;;
1693;SDS011;844;47.058;15.472;2022-08-21T10:35:20;2.23;;;1.53;;
1693;SDS011;844;47.058;15.472;2022-08-21T10:38:01;1.90;;;1.70;;
1693;SDS011;844;47.058;15.472;2022-08-21T10:41:24;4.40;;;1.50;;
1693;SDS011;844;47.058;15.472;2022-08-21T10:44:12;1.53;;;1.43;;
1693;SDS011;844;47.058;15.472;2022-08-21T10:46:54;2.20;;;2.00;;
1693;SDS011;844;47.058;15.472;2022-08-21T10:49:32;1.30;;;1.20;;
1693;SDS011;844;47.058;15.472;2022-08-21T10:52:18;1.40;;;1.30;;
1693;SDS011;844;47.058;15.472;2022-08-21T10:55:06;1.30;;;1.20;;
1693;SDS011;844;47.058;15.472;2022-08-21T10:57:42;1.93;;;1.73;;
1693;SDS011;844;47.058;15.472;2022-08-21T11:00:18;3.10;;;1.47;;
1693;SDS011;844;47.058;15.472;2022-08-21T11:02:53;1.63;;;1.53;;
1693;SDS011;844;47.058;15.472;2022-08-21T11:05:30;1.10;;;1.00;;
1693;SDS011;844;47.058;15.472;2022-08-21T11:08:05;1.20;;;1.10;;
1693;SDS011;844;47.058;15.472;2022-08-21T11:10:42;1.20;;;1.10;;
1693;SDS011;844;47.058;15.472;2022-08-21T11:13:27;1.73;;;1.40;;
1693;SDS011;844;47.058;15.472;2022-08-21T11:16:07;1.30;;;1.20;;
1693;SDS011;844;47.058;15.472;2022-08-21T11:18:49;2.23;;;1.37;;
1693;SDS011;844;47.058;15.472;2022-08-21T11:21:30;1.27;;;1.17;;
1693;SDS011;844;47.058;15.472;2022-08-21T11:24:14;1.00;;;0.90;;
1693;SDS011;844;47.058;15.472;2022-08-21T11:26:54;1.40;;;1.30;;
1693;SDS011;844;47.058;15.472;2022-08-21T11:29:33;1.43;;;1.33;;
1693;SDS011;844;47.058;15.472;2022-08-21T11:32:17;1.27;;;1.17;;
1693;SDS011;844;47.058;15.472;2022-08-21T11:35:10;1.93;;;1.60;;
1693;SDS011;844;47.058;15.472;2022-08-21T11:37:52;1.30;;;1.20;;
1693;SDS011;844;47.058;15.472;2022-08-21T11:40:37;1.20;;;1.10;;
1693;SDS011;844;47.058;15.472;2022-08-21T11:43:23;1.30;;;1.20;;
1693;SDS011;844;47.058;15.472;2022-08-21T11:46:18;1.30;;;1.20;;
1693;SDS011;844;47.058;15.472;2022-08-21T11:48:59;1.00;;;0.90;;
1693;SDS011;844;47.058;15.472;2022-08-21T11:51:48;1.13;;;1.03;;
1693;SDS011;844;47.058;15.472;2022-08-21T11:54:23;1.90;;;1.20;;
1693;SDS011;844;47.058;15.472;2022-08-21T11:57:05;1.50;;;1.07;;
1693;SDS011;844;47.058;15.472;2022-08-21T11:59:45;0.80;;;0.60;;
1693;SDS011;844;47.058;15.472;2022-08-21T12:02:21;0.90;;;0.70;;
1693;SDS011;844;47.058;15.472;2022-08-21T12:04:56;1.10;;;1.00;;
1693;SDS011;844;47.058;15.472;2022-08-21T12:07:37;1.10;;;0.90;;
1693;SDS011;844;47.058;15.472;2022-08-21T12:10:09;0.87;;;0.67;;
1693;SDS011;844;47.058;15.472;2022-08-21T12:12:42;1.20;;;0.93;;
1693;SDS011;844;47.058;15.472;2022-08-21T12:15:16;1.10;;;0.77;;
1693;SDS011;844;47.058;15.472;2022-08-21T12:17:55;1.10;;;1.00;;
1693;SDS011;844;47.058;15.472;2022-08-21T12:20:38;0.90;;;0.70;;
1693;SDS011;844;47.058;15.472;2022-08-21T12:23:24;1.00;;;0.87;;
1693;SDS011;844;47.058;15.472;2022-08-21T12:26:00;0.90;;;0.80;;
1693;SDS011;844;47.058;15.472;2022-08-21T12:28:48;0.90;;;0.57;;
1693;SDS011;844;47.058;15.472;2022-08-21T12:31:19;0.80;;;0.63;;
1693;SDS011;844;47.058;15.472;2022-08-21T12:33:58;1.30;;;1.17;;
1693;SDS011;844;47.058;15.472;2022-08-21T12:36:35;2.90;;;0.90;;
1693;SDS011;844;47.058;15.472;2022-08-21T12:39:14;1.03;;;0.83;;
1693;SDS011;844;47.058;15.472;2022-08-21T12:41:49;0.93;;;0.77;;
1693;SDS011;844;47.058;15.472;2022-08-21T12:44:30;1.23;;;0.80;;
1693;SDS011;844;47.058;15.472;2022-08-21T12:47:13;1.60;;;0.87;;
1693;SDS011;844;47.058;15.472;2022-08-21T12:49:51;0.67;;;0.60;;
1693;SDS011;844;47.058;15.472;2022-08-21T12:52:28;0.87;;;0.73;;
1693;SDS011;844;47.058;15.472;2022-08-21T12:55:14;0.70;;;0.60;;
1693;SDS011;844;47.058;15.472;2022-08-21T12:57:44;0.80;;;0.63;;
1693;SDS011;844;47.058;15.472;2022-08-21T13:00:19;0.90;;;0.80;;
1693;SDS011;844;47.058;15.472;2022-08-21T13:02:51;0.70;;;0.50;;
1693;SDS011;844;47.058;15.472;2022-08-21T13:05:25;1.20;;;1.07;;
1693;SDS011;844;47.058;15.472;2022-08-21T13:07:59;1.13;;;0.77;;
1693;SDS011;844;47.058;15.472;2022-08-21T13:10:36;0.70;;;0.60;;
1693;SDS011;844;47.058;15.472;2022-08-21T13:13:09;0.80;;;0.70;;
1693;SDS011;844;47.058;15.472;2022-08-21T13:15:56;0.80;;;0.67;;
1693;SDS011;844;47.058;15.472;2022-08-21T13:18:28;1.63;;;0.90;;
1693;SDS011;844;47.058;15.472;2022-08-21T13:21:04;1.30;;;0.77;;
1693;SDS011;844;47.058;15.472;2022-08-21T13:23:38;0.70;;;0.63;;
1693;SDS011;844;47.058;15.472;2022-08-21T13:26:14;1.10;;;0.90;;
1693;SDS011;844;47.058;15.472;2022-08-21T13:28:45;1.37;;;0.87;;
1693;SDS011;844;47.058;15.472;2022-08-21T13:31:16;1.27;;;0.80;;
1693;SDS011;844;47.058;15.472;2022-08-21T13:33:57;0.80;;;0.60;;
1693;SDS011;844;47.058;15.472;2022-08-21T13:36:29;1.17;;;0.57;;
1693;SDS011;844;47.058;15.472;2022-08-21T13:39:03;0.90;;;0.60;;
1693;SDS011;844;47.058;15.472;2022-08-21T13:41:37;1.70;;;0.80;;
1693;SDS011;844;47.058;15.472;2022-08-21T13:44:14;2.60;;;0.60;;
1693;SDS011;844;47.058;15.472;2022-08-21T13:46:48;0.70;;;0.60;;
1693;SDS011;844;47.058;15.472;2022-08-21T13:49:30;0.80;;;0.63;;
1693;SDS011;844;47.058;15.472;2022-08-21T13:52:03;0.93;;;0.83;;
1693;SDS011;844;47.058;15.472;2022-08-21T13:54:43;0.80;;;0.67;;
1693;SDS011;844;47.058;15.472;2022-08-21T13:57:18;0.80;;;0.60;;
1693;SDS011;844;47.058;15.472;2022-08-21T13:59:52;0.87;;;0.60;;
1693;SDS011;844;47.058;15.472;2022-08-21T14:02:21;0.70;;;0.60;;
1693;SDS011;844;47.058;15.472;2022-08-21T14:04:55;0.73;;;0.67;;
1693;SDS011;844;47.058;15.472;2022-08-21T14:07:28;0.70;;;0.70;;
1693;SDS011;844;47.058;15.472;2022-08-21T14:10:00;1.03;;;0.60;;
1693;SDS011;844;47.058;15.472;2022-08-21T14:12:35;0.80;;;0.77;;
1693;SDS011;844;47.058;15.472;2022-08-21T14:15:16;0.90;;;0.60;;
1693;SDS011;844;47.058;15.472;2022-08-21T14:17:51;1.00;;;0.90;;
1693;SDS011;844;47.058;15.472;2022-08-21T14:20:28;1.27;;;1.07;;
1693;SDS011;844;47.058;15.472;2022-08-21T14:22:59;1.10;;;0.70;;
1693;SDS011;844;47.058;15.472;2022-08-21T14:25:31;0.73;;;0.63;;
1693;SDS011;844;47.058;15.472;2022-08-21T14:31:10;0.70;;;0.60;;
1693;SDS011;844;47.058;15.472;2022-08-21T14:33:43;0.80;;;0.63;;
1693;SDS011;844;47.058;15.472;2022-08-21T14:36:12;0.80;;;0.67;;
1693;SDS011;844;47.058;15.472;2022-08-21T14:38:42;0.90;;;0.70;;
1693;SDS011;844;47.058;15.472;2022-08-21T14:41:14;1.03;;;0.60;;
1693;SDS011;844;47.058;15.472;2022-08-21T14:43:54;1.87;;;0.53;;
1693;SDS011;844;47.058;15.472;2022-08-21T14:46:35;1.53;;;0.60;;
1693;SDS011;844;47.058;15.472;2022-08-21T14:49:21;0.90;;;0.80;;
1693;SDS011;844;47.058;15.472;2022-08-21T14:51:55;0.80;;;0.80;;
1693;SDS011;844;47.058;15.472;2022-08-21T14:54:26;1.07;;;0.83;;
1693;SDS011;844;47.058;15.472;2022-08-21T14:56:58;1.00;;;0.90;;
1693;SDS011;844;47.058;15.472;2022-08-21T14:59:32;1.20;;;1.10;;
1693;SDS011;844;47.058;15.472;2022-08-21T15:02:04;1.10;;;1.00;;
1693;SDS011;844;47.058;15.472;2022-08-21T15:04:34;1.17;;;1.07;;
1693;SDS011;844;47.058;15.472;2022-08-21T15:07:04;1.30;;;1.10;;
1693;SDS011;844;47.058;15.472;2022-08-21T15:09:33;1.57;;;1.47;;
1693;SDS011;844;47.058;15.472;2022-08-21T15:12:03;2.50;;;1.90;;
1693;SDS011;844;47.058;15.472;2022-08-21T15:14:37;2.00;;;1.90;;
1693;SDS011;844;47.058;15.472;2022-08-21T15:17:08;2.23;;;1.70;;
1693;SDS011;844;47.058;15.472;2022-08-21T15:19:49;1.60;;;1.50;;
1693;SDS011;844;47.058;15.472;2022-08-21T15:22:19;2.10;;;1.93;;
1693;SDS011;844;47.058;15.472;2022-08-21T15:24:53;1.83;;;1.73;;
1693;SDS011;844;47.058;15.472;2022-08-21T15:27:22;1.50;;;1.40;;
1693;SDS011;844;47.058;15.472;2022-08-21T15:29:53;1.90;;;1.57;;
1693;SDS011;844;47.058;15.472;2022-08-21T15:32:23;1.70;;;1.60;;
1693;SDS011;844;47.058;15.472;2022-08-21T15:34:56;1.57;;;1.47;;
1693;SDS011;844;47.058;15.472;2022-08-21T15:37:26;2.20;;;2.00;;
1693;SDS011;844;47.058;15.472;2022-08-21T15:39:55;3.87;;;1.60;;
1693;SDS011;844;47.058;15.472;2022-08-21T15:42:27;1.77;;;1.67;;
1693;SDS011;844;47.058;15.472;2022-08-21T15:44:58;2.00;;;1.80;;
1693;SDS011;844;47.058;15.472;2022-08-21T15:47:29;3.70;;;1.50;;
1693;SDS011;844;47.058;15.472;2022-08-21T15:50:01;3.10;;;2.00;;
1693;SDS011;844;47.058;15.472;2022-08-21T15:52:31;2.10;;;1.90;;
1693;SDS011;844;47.058;15.472;2022-08-21T15:55:02;1.97;;;1.87;;
1693;SDS011;844;47.058;15.472;2022-08-21T15:57:32;2.10;;;1.90;;